createdAt,value
2023-04-18T00:01:44.493Z,96.44
2023-04-18T00:04:12.009Z,96.59
2023-04-18T00:06:39.034Z,97.18
2023-04-18T00:09:05.808Z,97.80
2023-04-18T00:11:32.532Z,97.64
2023-04-18T00:13:59.436Z,97.98
2023-04-18T00:16:27.437Z,98.19
2023-04-18T00:18:55.240Z,98.29
2023-04-18T00:21:22.685Z,98.40
2023-04-18T00:23:49.444Z,98.59
2023-04-18T00:26:16.124Z,99.07
2023-04-18T00:28:44.844Z,99.13
2023-04-18T00:31:11.596Z,98.90
2023-04-18T00:33:38.284Z,99.69
2023-04-18T00:36:05.720Z,99.84
2023-04-18T00:38:33.957Z,99.80
2023-04-18T00:41:00.646Z,100.00
2023-04-18T00:43:28.145Z,100.00
2023-04-18T00:45:57.051Z,100.00
2023-04-18T00:48:24.348Z,100.00
2023-04-18T00:50:51.202Z,100.00
2023-04-18T00:53:18.003Z,100.00
2023-04-18T00:55:44.715Z,100.00
2023-04-18T00:58:12.103Z,100.00
2023-04-18T01:00:38.830Z,100.00
2023-04-18T01:03:08.437Z,100.00
2023-04-18T01:05:36.371Z,100.00
2023-04-18T01:08:04.241Z,100.00
2023-04-18T01:10:35.889Z,100.00
2023-04-18T01:13:13.428Z,100.00
2023-04-18T01:15:41.799Z,100.00
2023-04-18T01:18:09.729Z,100.00
2023-04-18T01:20:38.158Z,100.00
2023-04-18T01:23:05.788Z,100.00
2023-04-18T01:25:34.919Z,100.00
2023-04-18T01:28:02.559Z,100.00
2023-04-18T01:30:29.274Z,100.00
2023-04-18T01:32:58.066Z,100.00
2023-04-18T01:35:26.989Z,100.00
2023-04-18T01:37:57.216Z,100.00
2023-04-18T01:40:24.381Z,100.00
2023-04-18T01:42:51.460Z,100.00
2023-04-18T01:45:20.009Z,100.00
2023-04-18T01:47:47.164Z,100.00
2023-04-18T01:50:14.064Z,100.00
2023-04-18T01:52:42.753Z,100.00
2023-04-18T01:55:10.028Z,100.00
2023-04-18T01:57:38.530Z,100.00
2023-04-18T02:00:06.653Z,100.00
2023-04-18T02:02:41.326Z,100.00
2023-04-18T02:05:09.119Z,100.00
2023-04-18T02:07:38.618Z,100.00
2023-04-18T02:10:05.865Z,100.00
2023-04-18T02:12:32.735Z,100.00
2023-04-18T02:14:59.973Z,100.00
2023-04-18T02:17:27.013Z,100.00
2023-04-18T02:19:54.599Z,100.00
2023-04-18T02:22:21.226Z,100.00
2023-04-18T02:24:47.913Z,100.00
2023-04-18T02:27:15.311Z,100.00
2023-04-18T02:29:42.065Z,100.00
2023-04-18T02:32:09.163Z,100.00
2023-04-18T02:34:36.698Z,100.00
2023-04-18T02:37:04.194Z,100.00
2023-04-18T02:39:32.335Z,99.69
2023-04-18T02:41:59.160Z,99.35
2023-04-18T02:44:25.867Z,98.66
2023-04-18T02:46:52.618Z,97.99
2023-04-18T02:49:19.367Z,97.46
2023-04-18T02:51:46.626Z,96.89
2023-04-18T02:54:14.179Z,95.87
2023-04-18T02:56:54.334Z,95.39
2023-04-18T02:59:29.817Z,95.19
2023-04-18T03:02:09.372Z,95.67
2023-04-18T03:04:40.145Z,95.22
2023-04-18T03:07:08.677Z,95.24
2023-04-18T03:09:37.768Z,95.02
2023-04-18T03:12:13.910Z,95.57
2023-04-18T03:14:42.401Z,96.16
2023-04-18T03:17:09.044Z,96.08
2023-04-18T03:19:39.946Z,96.57
2023-04-18T03:22:10.055Z,96.26
2023-04-18T03:24:43.519Z,96.24
2023-04-18T03:27:13.146Z,96.56
2023-04-18T03:29:40.862Z,96.69
2023-04-18T03:32:08.330Z,97.41
2023-04-18T03:34:34.992Z,97.42
2023-04-18T03:37:04.335Z,97.43
2023-04-18T03:39:35.332Z,97.17
2023-04-18T03:42:02.522Z,98.03
2023-04-18T03:44:29.353Z,97.98
2023-04-18T03:46:57.349Z,97.71
2023-04-18T03:49:25.432Z,97.23
2023-04-18T03:51:52.199Z,97.43
2023-04-18T03:54:19.111Z,97.21
2023-04-18T03:56:46.364Z,96.75
2023-04-18T03:59:13.988Z,96.82
2023-04-18T04:01:44.414Z,96.73
2023-04-18T04:04:13.150Z,96.01
2023-04-18T04:06:40.136Z,96.56
2023-04-18T04:09:06.974Z,96.78
2023-04-18T04:11:33.824Z,96.12
2023-04-18T04:14:00.967Z,96.74
2023-04-18T04:16:33.682Z,96.29
2023-04-18T04:19:00.970Z,96.59
2023-04-18T04:21:34.882Z,97.50
2023-04-18T04:24:02.056Z,97.18
2023-04-18T04:26:37.287Z,97.06
2023-04-18T04:29:10.871Z,97.49
2023-04-18T04:31:39.248Z,97.38
2023-04-18T04:34:06.273Z,98.05
2023-04-18T04:36:33.497Z,97.36
2023-04-18T04:39:04.222Z,97.89
2023-04-18T04:41:49.146Z,98.10
2023-04-18T04:44:18.938Z,97.89
2023-04-18T04:46:45.694Z,97.88
2023-04-18T04:49:18.888Z,98.21
2023-04-18T04:51:45.780Z,98.01
2023-04-18T04:54:12.790Z,97.66
2023-04-18T04:56:40.345Z,97.77
2023-04-18T04:59:07.562Z,97.43
2023-04-18T05:01:38.766Z,97.57
2023-04-18T05:04:05.878Z,97.25
2023-04-18T05:06:32.930Z,96.69
2023-04-18T05:09:00.980Z,97.16
2023-04-18T05:11:27.862Z,97.38
2023-04-18T05:13:54.753Z,97.01
2023-04-18T05:16:21.509Z,96.89
2023-04-18T05:18:48.364Z,96.64
2023-04-18T05:21:15.092Z,95.73
2023-04-18T05:23:41.705Z,96.59
2023-04-18T05:26:08.495Z,95.44
2023-04-18T05:28:35.288Z,96.01
2023-04-18T05:31:02.089Z,95.71
2023-04-18T05:33:32.110Z,95.72
2023-04-18T05:35:59.245Z,95.31
2023-04-18T05:38:26.024Z,95.49
2023-04-18T05:40:55.455Z,95.27
2023-04-18T05:43:23.040Z,95.25
2023-04-18T05:45:52.242Z,94.98
2023-04-18T05:48:19.395Z,94.10
2023-04-18T05:50:46.246Z,94.21
2023-04-18T05:53:13.008Z,94.37
2023-04-18T05:55:41.004Z,94.64
2023-04-18T05:58:07.963Z,94.85
2023-04-18T06:00:35.065Z,93.86
2023-04-18T06:03:02.111Z,93.66
2023-04-18T06:05:29.421Z,93.99
2023-04-18T06:07:56.249Z,92.73
2023-04-18T06:10:22.973Z,92.65
2023-04-18T06:12:49.665Z,92.05
2023-04-18T06:15:16.730Z,91.28
2023-04-18T06:17:44.627Z,92.10
2023-04-18T06:20:11.506Z,91.06
2023-04-18T06:22:38.201Z,90.74
2023-04-18T06:25:05.687Z,90.56
2023-04-18T06:27:32.392Z,89.90
2023-04-18T06:29:59.192Z,89.05
2023-04-18T06:32:26.035Z,88.92
2023-04-18T06:34:53.137Z,88.92
2023-04-18T06:37:20.688Z,87.88
2023-04-18T06:39:47.391Z,87.73
2023-04-18T06:42:14.051Z,87.30
2023-04-18T06:44:44.509Z,86.93
2023-04-18T06:47:11.435Z,86.67
2023-04-18T06:49:38.174Z,85.61
2023-04-18T06:52:04.934Z,85.08
2023-04-18T06:54:31.618Z,84.58
2023-04-18T06:56:58.976Z,84.14
2023-04-18T06:59:27.159Z,83.67
2023-04-18T07:01:53.902Z,82.88
2023-04-18T07:04:20.788Z,82.16
2023-04-18T07:06:47.586Z,82.28
2023-04-18T07:09:14.255Z,82.30
2023-04-18T07:11:41.105Z,82.31
2023-04-18T07:14:07.803Z,81.55
2023-04-18T07:16:34.777Z,81.48
2023-04-18T07:19:01.515Z,81.58
2023-04-18T07:21:28.374Z,81.03
2023-04-18T07:23:55.345Z,81.88
2023-04-18T07:26:22.316Z,80.87
2023-04-18T07:28:49.509Z,81.07
2023-04-18T07:31:16.625Z,81.17
2023-04-18T07:33:43.636Z,79.58
2023-04-18T07:36:10.903Z,79.63
2023-04-18T07:38:37.777Z,79.26
2023-04-18T07:41:04.542Z,79.30
2023-04-18T07:43:31.320Z,78.24
2023-04-18T07:45:58.097Z,76.62
2023-04-18T07:48:27.557Z,76.30
2023-04-18T07:50:54.454Z,75.64
2023-04-18T07:53:21.261Z,74.96
2023-04-18T07:55:48.087Z,73.80
2023-04-18T07:58:14.828Z,73.78
2023-04-18T08:00:43.779Z,74.66
2023-04-18T08:03:12.377Z,73.46
2023-04-18T08:05:40.925Z,72.63
2023-04-18T08:08:09.285Z,71.94
2023-04-18T08:10:36.279Z,72.03
2023-04-18T08:13:03.499Z,70.99
2023-04-18T08:15:32.723Z,70.69
2023-04-18T08:18:00.781Z,70.32
2023-04-18T08:20:27.796Z,70.22
2023-04-18T08:23:06.200Z,69.51
2023-04-18T08:25:33.497Z,69.08
2023-04-18T08:28:00.299Z,68.32
2023-04-18T08:30:27.209Z,69.15
2023-04-18T08:32:54.030Z,67.06
2023-04-18T08:35:20.807Z,67.36
2023-04-18T08:37:47.502Z,68.14
2023-04-18T08:40:14.568Z,66.74
2023-04-18T08:42:44.260Z,68.60
2023-04-18T08:45:13.943Z,65.50
2023-04-18T08:47:41.659Z,66.08
2023-04-18T08:50:10.055Z,65.39
2023-04-18T08:52:39.409Z,64.47
2023-04-18T08:55:07.423Z,65.28
2023-04-18T08:57:35.676Z,63.02
2023-04-18T09:00:02.483Z,60.71
2023-04-18T09:02:42.408Z,62.90
2023-04-18T09:05:19.516Z,64.61
2023-04-18T09:07:47.985Z,64.86
2023-04-18T09:10:34.815Z,63.94
2023-04-18T09:13:03.738Z,63.45
2023-04-18T09:15:31.012Z,63.38
2023-04-18T09:18:01.681Z,61.34
2023-04-18T09:20:43.804Z,58.70
2023-04-18T09:23:14.829Z,57.95
2023-04-18T09:25:44.156Z,58.38
2023-04-18T09:28:27.030Z,57.82
2023-04-18T09:30:56.208Z,57.13
2023-04-18T09:33:52.800Z,56.50
2023-04-18T09:36:21.401Z,55.96
2023-04-18T09:38:49.270Z,55.46
2023-04-18T09:41:21.412Z,54.59
2023-04-18T09:43:48.757Z,53.13
2023-04-18T09:46:17.573Z,52.68
2023-04-18T09:48:44.506Z,52.32
2023-04-18T09:51:17.945Z,52.92
2023-04-18T09:53:47.477Z,52.10
2023-04-18T09:56:28.098Z,51.05
2023-04-18T09:59:08.884Z,52.81
2023-04-18T10:01:36.130Z,51.62
2023-04-18T10:04:06.486Z,51.82
2023-04-18T10:06:42.028Z,51.04
2023-04-18T10:09:10.179Z,50.75
2023-04-18T10:11:37.149Z,51.27
2023-04-18T10:14:07.871Z,51.07
2023-04-18T10:16:36.324Z,52.04
2023-04-18T10:19:29.553Z,53.03
2023-04-18T10:21:58.643Z,54.57
2023-04-18T10:24:44.016Z,54.69
2023-04-18T10:27:10.855Z,54.50
2023-04-18T10:29:53.143Z,55.88
2023-04-18T10:32:23.034Z,58.07
2023-04-18T10:34:50.519Z,58.98
2023-04-18T10:37:18.988Z,59.35
2023-04-18T10:39:51.698Z,59.95
2023-04-18T10:42:18.624Z,59.88
2023-04-18T10:45:17.788Z,57.64
2023-04-18T10:47:44.621Z,58.49
2023-04-18T10:50:11.890Z,58.31
2023-04-18T10:52:38.671Z,57.33
2023-04-18T10:55:16.569Z,54.87
2023-04-18T10:57:48.135Z,54.14
2023-04-18T11:00:20.541Z,54.66
2023-04-18T11:03:00.295Z,54.15
2023-04-18T11:05:28.893Z,53.60
2023-04-18T11:07:55.620Z,53.23
2023-04-18T11:10:25.560Z,52.39
2023-04-18T11:12:53.203Z,51.95
2023-04-18T11:15:24.613Z,52.11
2023-04-18T11:18:04.298Z,51.84
2023-04-18T11:20:49.028Z,51.93
2023-04-18T11:23:21.516Z,51.56
2023-04-18T11:25:54.469Z,50.59
2023-04-18T11:28:24.715Z,50.75
2023-04-18T11:30:51.484Z,51.32
2023-04-18T11:33:18.311Z,51.88
2023-04-18T11:35:46.471Z,52.71
2023-04-18T11:38:15.156Z,50.95
2023-04-18T11:40:51.338Z,51.06
2023-04-18T11:43:23.330Z,50.81
2023-04-18T11:45:58.112Z,48.70
2023-04-18T11:48:37.214Z,48.52
2023-04-18T11:51:05.962Z,48.64
2023-04-18T11:53:36.760Z,48.69
2023-04-18T11:56:04.140Z,48.25
2023-04-18T11:58:33.038Z,48.45
2023-04-18T12:01:00.807Z,48.29
2023-04-18T12:03:29.594Z,48.90
2023-04-18T12:06:03.503Z,47.75
2023-04-18T12:08:32.400Z,48.39
2023-04-18T12:10:59.066Z,47.74
2023-04-18T12:13:31.032Z,48.14
2023-04-18T12:15:58.243Z,48.49
2023-04-18T12:18:25.002Z,47.61
2023-04-18T12:20:54.303Z,46.12
2023-04-18T12:23:35.528Z,46.20
2023-04-18T12:26:07.552Z,46.98
2023-04-18T12:28:35.461Z,47.14
2023-04-18T12:31:02.429Z,47.62
2023-04-18T12:33:29.249Z,48.00
2023-04-18T12:35:56.136Z,47.84
2023-04-18T12:38:23.552Z,45.52
2023-04-18T12:40:51.715Z,45.95
2023-04-18T12:43:19.301Z,44.86
2023-04-18T12:45:47.117Z,43.81
2023-04-18T12:48:13.995Z,43.68
2023-04-18T12:50:40.798Z,42.89
2023-04-18T12:53:07.646Z,43.10
2023-04-18T12:55:34.591Z,43.39
2023-04-18T12:58:01.273Z,44.21
2023-04-18T13:00:31.243Z,44.97
2023-04-18T13:02:58.942Z,45.68
2023-04-18T13:05:30.669Z,44.97
2023-04-18T13:08:15.333Z,43.69
2023-04-18T13:10:44.560Z,43.42
2023-04-18T13:13:11.222Z,42.00
2023-04-18T13:15:38.249Z,43.02
2023-04-18T13:18:06.752Z,42.84
2023-04-18T13:20:34.361Z,42.84
2023-04-18T13:23:02.793Z,42.75
2023-04-18T13:25:29.575Z,42.41
2023-04-18T13:27:58.390Z,43.11
2023-04-18T13:30:25.321Z,43.33
2023-04-18T13:32:52.096Z,44.67
2023-04-18T13:35:18.973Z,45.83
2023-04-18T13:37:46.252Z,43.84
2023-04-18T13:40:13.359Z,43.51
2023-04-18T13:42:40.092Z,43.94
2023-04-18T13:45:07.427Z,43.82
2023-04-18T13:47:34.905Z,44.60
2023-04-18T13:50:01.777Z,100.00
2023-04-18T13:52:28.668Z,100.00
2023-04-18T13:54:55.517Z,40.39
2023-04-18T13:57:23.150Z,38.88
2023-04-18T13:59:49.950Z,37.19
2023-04-18T14:02:16.840Z,38.16
2023-04-18T14:04:43.827Z,36.98
2023-04-18T14:07:10.755Z,36.06
2023-04-18T14:09:37.623Z,34.06
2023-04-18T14:12:04.670Z,34.11
2023-04-18T14:14:31.358Z,34.48
2023-04-18T14:16:58.026Z,34.06
2023-04-18T14:19:25.069Z,35.52
2023-04-18T14:21:51.897Z,35.90
2023-04-18T14:24:18.683Z,36.11
2023-04-18T14:26:45.387Z,36.11
2023-04-18T14:29:12.246Z,36.45
2023-04-18T14:31:39.256Z,37.28
2023-04-18T14:34:06.603Z,38.04
2023-04-18T14:36:33.313Z,37.88
2023-04-18T14:39:00.017Z,38.58
2023-04-18T14:41:26.893Z,37.87
2023-04-18T14:43:53.627Z,36.08
2023-04-18T14:46:20.839Z,35.41
2023-04-18T14:48:47.649Z,33.66
2023-04-18T14:51:17.435Z,32.31
2023-04-18T14:53:44.975Z,32.12
2023-04-18T14:56:12.207Z,31.70
2023-04-18T14:58:38.924Z,31.08
2023-04-18T15:01:05.764Z,32.31
2023-04-18T15:03:33.172Z,33.11
2023-04-18T15:06:00.083Z,34.56
2023-04-18T15:08:26.899Z,35.42
2023-04-18T15:10:53.627Z,35.83
2023-04-18T15:13:20.396Z,36.65
2023-04-18T15:15:54.002Z,37.31
2023-04-18T15:18:21.255Z,37.41
2023-04-18T15:20:48.186Z,37.89
2023-04-18T15:23:15.374Z,38.65
2023-04-18T15:25:44.213Z,38.42
2023-04-18T15:28:13.182Z,37.67
2023-04-18T15:30:40.008Z,36.17
2023-04-18T15:33:06.811Z,34.59
2023-04-18T15:35:33.554Z,33.91
2023-04-18T15:38:00.301Z,33.36
2023-04-18T15:40:26.967Z,34.73
2023-04-18T15:42:54.408Z,36.45
2023-04-18T15:45:21.884Z,37.03
2023-04-18T15:47:48.632Z,35.33
2023-04-18T15:50:16.356Z,33.83
2023-04-18T15:52:43.917Z,32.46
2023-04-18T15:55:13.080Z,32.55
2023-04-18T15:57:41.576Z,32.39
2023-04-18T16:00:17.337Z,31.86
2023-04-18T16:02:45.234Z,32.52
2023-04-18T16:05:13.686Z,32.87
2023-04-18T16:07:41.369Z,33.91
2023-04-18T16:10:12.714Z,34.97
2023-04-18T16:12:40.189Z,36.12
2023-04-18T16:15:09.048Z,35.62
2023-04-18T16:17:36.557Z,34.90
2023-04-18T16:20:03.712Z,33.75
2023-04-18T16:22:30.570Z,33.69
2023-04-18T16:24:57.405Z,33.90
2023-04-18T16:27:24.078Z,33.19
2023-04-18T16:29:50.854Z,33.83
2023-04-18T16:32:17.566Z,33.35
2023-04-18T16:34:44.234Z,33.02
2023-04-18T16:37:11.250Z,34.05
2023-04-18T16:39:37.953Z,35.01
2023-04-18T16:42:04.887Z,35.21
2023-04-18T16:44:32.591Z,35.34
2023-04-18T16:46:59.385Z,35.89
2023-04-18T16:49:26.203Z,35.07
2023-04-18T16:51:52.925Z,34.63
2023-04-18T16:54:19.617Z,33.38
2023-04-18T16:56:46.273Z,33.80
2023-04-18T16:59:12.976Z,34.32
2023-04-18T17:01:39.742Z,34.75
2023-04-18T17:04:06.612Z,35.85
2023-04-18T17:06:33.993Z,35.44
2023-04-18T17:09:00.892Z,34.83
2023-04-18T17:11:27.913Z,33.89
2023-04-18T17:13:54.579Z,33.69
2023-04-18T17:16:21.693Z,33.21
2023-04-18T17:18:48.766Z,33.48
2023-04-18T17:21:15.454Z,34.19
2023-04-18T17:23:42.641Z,34.12
2023-04-18T17:26:10.196Z,34.89
2023-04-18T17:28:36.991Z,34.74
2023-04-18T17:31:03.931Z,35.37
2023-04-18T17:33:31.275Z,35.66
2023-04-18T17:35:58.246Z,36.65
2023-04-18T17:38:25.082Z,37.77
2023-04-18T17:40:59.548Z,36.55
2023-04-18T17:43:26.407Z,36.74
2023-04-18T17:45:53.228Z,37.14
2023-04-18T17:48:19.932Z,38.17
2023-04-18T17:50:46.765Z,38.16
2023-04-18T17:53:13.507Z,37.70
2023-04-18T17:55:40.368Z,38.24
2023-04-18T17:58:07.302Z,38.28
2023-04-18T18:00:33.935Z,38.70
2023-04-18T18:03:01.790Z,39.05
2023-04-18T18:05:28.473Z,38.93
2023-04-18T18:07:56.247Z,38.86
2023-04-18T18:10:23.889Z,39.65
2023-04-18T18:12:50.942Z,39.25
2023-04-18T18:15:18.348Z,39.52
2023-04-18T18:17:45.128Z,39.70
2023-04-18T18:20:12.039Z,39.33
2023-04-18T18:22:38.759Z,39.83
2023-04-18T18:25:05.822Z,39.89
2023-04-18T18:27:32.500Z,40.58
2023-04-18T18:29:59.222Z,40.38
2023-04-18T18:32:26.973Z,40.65
2023-04-18T18:34:53.769Z,40.77
2023-04-18T18:37:23.169Z,40.60
2023-04-18T18:39:49.935Z,40.72
2023-04-18T18:42:16.580Z,40.79
2023-04-18T18:44:43.390Z,41.01
2023-04-18T18:47:10.081Z,41.13
2023-04-18T18:49:36.772Z,41.01
2023-04-18T18:52:05.347Z,41.19
2023-04-18T18:54:32.271Z,41.18
2023-04-18T18:57:00.001Z,41.68
2023-04-18T18:59:27.173Z,41.70
2023-04-18T19:01:54.096Z,42.26
2023-04-18T19:04:21.389Z,42.34
2023-04-18T19:06:48.276Z,42.03
2023-04-18T19:09:15.435Z,41.84
2023-04-18T19:11:42.423Z,42.89
2023-04-18T19:14:09.141Z,43.03
2023-04-18T19:16:36.146Z,43.26
2023-04-18T19:19:02.927Z,43.81
2023-04-18T19:21:30.001Z,43.62
2023-04-18T19:23:56.709Z,43.88
2023-04-18T19:26:23.454Z,43.84
2023-04-18T19:28:50.185Z,43.85
2023-04-18T19:31:16.860Z,44.05
2023-04-18T19:33:43.554Z,44.29
2023-04-18T19:36:10.344Z,44.65
2023-04-18T19:38:37.040Z,44.50
2023-04-18T19:41:03.708Z,44.89
2023-04-18T19:43:30.410Z,45.02
2023-04-18T19:45:57.416Z,45.65
2023-04-18T19:48:24.191Z,45.25
2023-04-18T19:50:51.195Z,45.54
2023-04-18T19:53:19.007Z,45.97
2023-04-18T19:55:46.121Z,45.74
2023-04-18T19:58:33.706Z,45.51
2023-04-18T20:01:00.666Z,46.02
2023-04-18T20:03:27.783Z,45.83
2023-04-18T20:05:54.597Z,46.24
2023-04-18T20:08:21.242Z,46.22
2023-04-18T20:10:47.945Z,46.07
2023-04-18T20:13:14.599Z,46.49
2023-04-18T20:15:42.214Z,46.19
2023-04-18T20:18:08.908Z,46.62
2023-04-18T20:20:35.735Z,46.45
2023-04-18T20:23:03.395Z,46.94
2023-04-18T20:25:30.104Z,46.46
2023-04-18T20:27:56.834Z,46.36
2023-04-18T20:30:23.633Z,46.91
2023-04-18T20:32:50.439Z,46.78
2023-04-18T20:35:17.424Z,46.67
2023-04-18T20:37:44.674Z,46.36
2023-04-18T20:40:11.465Z,46.62
2023-04-18T20:42:38.981Z,46.89
2023-04-18T20:45:06.468Z,47.34
2023-04-18T20:47:34.047Z,47.44
2023-04-18T20:50:00.735Z,47.02
2023-04-18T20:52:27.411Z,47.64
2023-04-18T20:54:54.052Z,48.20
2023-04-18T20:57:20.735Z,47.35
2023-04-18T20:59:47.633Z,48.37
2023-04-18T21:02:15.110Z,47.88
2023-04-18T21:04:42.113Z,49.14
2023-04-18T21:07:08.914Z,48.95
2023-04-18T21:09:37.021Z,49.02
2023-04-18T21:12:05.104Z,48.18
2023-04-18T21:14:31.989Z,48.17
2023-04-18T21:16:58.685Z,48.93
2023-04-18T21:19:25.517Z,48.26
2023-04-18T21:21:52.199Z,47.83
2023-04-18T21:24:18.861Z,47.60
2023-04-18T21:26:45.584Z,48.84
2023-04-18T21:29:12.285Z,49.93
2023-04-18T21:31:39.085Z,49.32
2023-04-18T21:34:05.801Z,49.82
2023-04-18T21:36:32.876Z,49.12
2023-04-18T21:39:01.325Z,49.34
2023-04-18T21:41:28.152Z,49.18
2023-04-18T21:43:54.841Z,49.56
2023-04-18T21:46:21.602Z,49.10
2023-04-18T21:48:48.532Z,48.64
2023-04-18T21:51:16.927Z,49.03
2023-04-18T21:53:44.007Z,49.13
2023-04-18T21:56:11.065Z,48.54
2023-04-18T21:58:37.859Z,48.61
2023-04-18T22:01:04.796Z,49.11
2023-04-18T22:03:33.571Z,49.01
2023-04-18T22:06:01.541Z,49.34
2023-04-18T22:08:29.565Z,49.63
2023-04-18T22:10:58.940Z,49.68
2023-04-18T22:13:29.996Z,49.47
2023-04-18T22:15:58.244Z,49.58
2023-04-18T22:18:25.356Z,49.89
2023-04-18T22:20:53.862Z,49.31
2023-04-18T22:23:20.745Z,48.87
2023-04-18T22:25:47.824Z,49.49
2023-04-18T22:28:14.581Z,48.88
2023-04-18T22:30:41.302Z,49.26
2023-04-18T22:33:08.031Z,49.92
2023-04-18T22:35:34.704Z,49.50
2023-04-18T22:38:01.369Z,49.29
2023-04-18T22:40:28.148Z,49.38
2023-04-18T22:42:54.868Z,49.13
2023-04-18T22:45:21.610Z,50.02
2023-04-18T22:47:48.457Z,49.87
2023-04-18T22:50:15.311Z,49.90
2023-04-18T22:52:42.091Z,50.20
2023-04-18T22:55:09.628Z,50.18
2023-04-18T22:57:38.608Z,50.94
2023-04-18T23:00:06.668Z,51.12
2023-04-18T23:02:33.498Z,50.54
2023-04-18T23:05:02.365Z,50.23
2023-04-18T23:07:29.132Z,50.26
2023-04-18T23:09:55.814Z,49.74
2023-04-18T23:12:22.632Z,49.92
2023-04-18T23:14:49.441Z,49.63
2023-04-18T23:17:16.160Z,49.62
2023-04-18T23:19:45.063Z,49.69
2023-04-18T23:22:11.822Z,49.14
2023-04-18T23:24:38.962Z,49.96
2023-04-18T23:27:05.879Z,50.31
2023-04-18T23:29:36.895Z,50.05
2023-04-18T23:32:03.878Z,49.77
2023-04-18T23:34:30.608Z,49.75
2023-04-18T23:36:57.301Z,49.97
2023-04-18T23:39:26.133Z,50.13
2023-04-18T23:41:52.812Z,50.73
2023-04-18T23:44:19.474Z,49.98
2023-04-18T23:46:47.275Z,50.25
2023-04-18T23:49:14.352Z,50.84
2023-04-18T23:51:40.991Z,51.28
2023-04-18T23:54:07.685Z,50.39
2023-04-18T23:56:34.592Z,50.00
2023-04-18T23:59:01.308Z,51.03
